sensor_id;sensor_type;location;lat;lon;timestamp;P1;durP1;ratioP1;P2;durP2;ratioP2
31368;SDS011;18004;48.416;10.066;2023-04-25T00:00:12;6.97;;;4.80;;
31368;SDS011;18004;48.416;10.066;2023-04-25T00:02:38;7.60;;;4.47;;
31368;SDS011;18004;48.416;10.066;2023-04-25T00:05:03;5.88;;;3.25;;
31368;SDS011;18004;48.416;10.066;2023-04-25T00:07:30;3.97;;;2.67;;
31368;SDS011;18004;48.416;10.066;2023-04-25T00:09:56;5.55;;;1.63;;
31368;SDS011;18004;48.416;10.066;2023-04-25T00:12:22;1.95;;;1.00;;
31368;SDS011;18004;48.416;10.066;2023-04-25T00:14:48;2.13;;;1.15;;
31368;SDS011;18004;48.416;10.066;2023-04-25T00:17:15;2.28;;;1.08;;
31368;SDS011;18004;48.416;10.066;2023-04-25T00:19:44;3.10;;;1.67;;
31368;SDS011;18004;48.416;10.066;2023-04-25T00:22:11;2.05;;;1.23;;
31368;SDS011;18004;48.416;10.066;2023-04-25T00:24:38;1.83;;;1.13;;
31368;SDS011;18004;48.416;10.066;2023-04-25T00:27:04;2.38;;;1.50;;
31368;SDS011;18004;48.416;10.066;2023-04-25T00:29:29;1.40;;;1.08;;
31368;SDS011;18004;48.416;10.066;2023-04-25T00:31:55;1.55;;;1.10;;
31368;SDS011;18004;48.416;10.066;2023-04-25T00:34:21;1.55;;;1.23;;
31368;SDS011;18004;48.416;10.066;2023-04-25T00:36:47;1.35;;;0.98;;
31368;SDS011;18004;48.416;10.066;2023-04-25T00:39:12;2.83;;;1.33;;
31368;SDS011;18004;48.416;10.066;2023-04-25T00:41:38;4.15;;;1.60;;
31368;SDS011;18004;48.416;10.066;2023-04-25T00:44:04;3.75;;;2.63;;
31368;SDS011;18004;48.416;10.066;2023-04-25T00:46:32;4.60;;;3.17;;
31368;SDS011;18004;48.416;10.066;2023-04-25T00:48:58;2.55;;;1.85;;
31368;SDS011;18004;48.416;10.066;2023-04-25T00:51:24;5.03;;;1.83;;
31368;SDS011;18004;48.416;10.066;2023-04-25T00:53:51;1.90;;;1.38;;
31368;SDS011;18004;48.416;10.066;2023-04-25T00:56:18;2.95;;;1.20;;
31368;SDS011;18004;48.416;10.066;2023-04-25T00:58:44;2.70;;;1.20;;
31368;SDS011;18004;48.416;10.066;2023-04-25T01:01:11;2.05;;;1.25;;
31368;SDS011;18004;48.416;10.066;2023-04-25T01:03:38;4.03;;;1.20;;
31368;SDS011;18004;48.416;10.066;2023-04-25T01:06:08;1.83;;;1.40;;
31368;SDS011;18004;48.416;10.066;2023-04-25T01:08:35;0.95;;;0.93;;
31368;SDS011;18004;48.416;10.066;2023-04-25T01:11:02;5.38;;;1.42;;
31368;SDS011;18004;48.416;10.066;2023-04-25T01:13:27;3.95;;;1.30;;
31368;SDS011;18004;48.416;10.066;2023-04-25T01:15:53;2.80;;;1.50;;
31368;SDS011;18004;48.416;10.066;2023-04-25T01:18:20;4.13;;;1.52;;
31368;SDS011;18004;48.416;10.066;2023-04-25T01:20:46;1.73;;;1.27;;
31368;SDS011;18004;48.416;10.066;2023-04-25T01:23:15;1.45;;;1.17;;
31368;SDS011;18004;48.416;10.066;2023-04-25T01:25:41;2.67;;;1.70;;
31368;SDS011;18004;48.416;10.066;2023-04-25T01:28:07;2.03;;;0.98;;
31368;SDS011;18004;48.416;10.066;2023-04-25T01:30:33;1.73;;;1.13;;
31368;SDS011;18004;48.416;10.066;2023-04-25T01:33:00;6.78;;;1.75;;
31368;SDS011;18004;48.416;10.066;2023-04-25T01:35:27;1.65;;;1.50;;
31368;SDS011;18004;48.416;10.066;2023-04-25T01:37:53;6.07;;;3.53;;
31368;SDS011;18004;48.416;10.066;2023-04-25T01:40:19;2.92;;;2.15;;
31368;SDS011;18004;48.416;10.066;2023-04-25T01:42:47;2.08;;;1.45;;
31368;SDS011;18004;48.416;10.066;2023-04-25T01:45:13;3.08;;;1.33;;
31368;SDS011;18004;48.416;10.066;2023-04-25T01:47:39;1.50;;;1.30;;
31368;SDS011;18004;48.416;10.066;2023-04-25T01:50:06;2.35;;;1.40;;
31368;SDS011;18004;48.416;10.066;2023-04-25T01:52:33;1.73;;;1.48;;
31368;SDS011;18004;48.416;10.066;2023-04-25T01:54:59;1.65;;;1.30;;
31368;SDS011;18004;48.416;10.066;2023-04-25T01:57:26;2.13;;;1.52;;
31368;SDS011;18004;48.416;10.066;2023-04-25T01:59:54;7.45;;;2.65;;
31368;SDS011;18004;48.416;10.066;2023-04-25T02:02:25;14.50;;;4.57;;
31368;SDS011;18004;48.416;10.066;2023-04-25T02:04:51;15.10;;;5.50;;
31368;SDS011;18004;48.416;10.066;2023-04-25T02:07:17;14.30;;;5.88;;
31368;SDS011;18004;48.416;10.066;2023-04-25T02:09:43;19.02;;;7.38;;
31368;SDS011;18004;48.416;10.066;2023-04-25T02:12:09;18.95;;;6.80;;
31368;SDS011;18004;48.416;10.066;2023-04-25T02:14:35;10.43;;;5.32;;
31368;SDS011;18004;48.416;10.066;2023-04-25T02:17:01;7.70;;;3.60;;
31368;SDS011;18004;48.416;10.066;2023-04-25T02:19:27;15.40;;;4.22;;
31368;SDS011;18004;48.416;10.066;2023-04-25T02:21:53;8.77;;;3.58;;
31368;SDS011;18004;48.416;10.066;2023-04-25T02:24:19;7.75;;;4.43;;
31368;SDS011;18004;48.416;10.066;2023-04-25T02:26:44;7.60;;;3.65;;
31368;SDS011;18004;48.416;10.066;2023-04-25T02:29:12;10.52;;;3.90;;
31368;SDS011;18004;48.416;10.066;2023-04-25T02:31:40;8.95;;;2.88;;
31368;SDS011;18004;48.416;10.066;2023-04-25T02:34:06;4.28;;;2.47;;
31368;SDS011;18004;48.416;10.066;2023-04-25T02:36:32;5.10;;;2.10;;
31368;SDS011;18004;48.416;10.066;2023-04-25T02:38:59;4.47;;;2.58;;
31368;SDS011;18004;48.416;10.066;2023-04-25T02:41:26;3.25;;;2.30;;
31368;SDS011;18004;48.416;10.066;2023-04-25T02:43:52;4.45;;;2.30;;
31368;SDS011;18004;48.416;10.066;2023-04-25T02:46:17;10.13;;;3.03;;
31368;SDS011;18004;48.416;10.066;2023-04-25T02:48:43;5.32;;;2.47;;
31368;SDS011;18004;48.416;10.066;2023-04-25T02:51:09;3.92;;;2.83;;
31368;SDS011;18004;48.416;10.066;2023-04-25T02:53:35;5.32;;;1.95;;
31368;SDS011;18004;48.416;10.066;2023-04-25T02:56:01;4.32;;;2.17;;
31368;SDS011;18004;48.416;10.066;2023-04-25T02:58:27;4.97;;;3.17;;
31368;SDS011;18004;48.416;10.066;2023-04-25T03:00:52;5.30;;;3.72;;
31368;SDS011;18004;48.416;10.066;2023-04-25T03:03:21;4.55;;;3.28;;
31368;SDS011;18004;48.416;10.066;2023-04-25T03:05:48;5.85;;;3.60;;
31368;SDS011;18004;48.416;10.066;2023-04-25T03:08:15;6.85;;;3.22;;
31368;SDS011;18004;48.416;10.066;2023-04-25T03:10:42;7.05;;;3.05;;
31368;SDS011;18004;48.416;10.066;2023-04-25T03:13:08;6.60;;;4.60;;
31368;SDS011;18004;48.416;10.066;2023-04-25T03:15:34;15.30;;;6.20;;
31368;SDS011;18004;48.416;10.066;2023-04-25T03:18:00;12.35;;;7.80;;
31368;SDS011;18004;48.416;10.066;2023-04-25T03:20:26;13.13;;;6.95;;
31368;SDS011;18004;48.416;10.066;2023-04-25T03:22:52;10.35;;;5.22;;
31368;SDS011;18004;48.416;10.066;2023-04-25T03:25:18;7.97;;;3.53;;
31368;SDS011;18004;48.416;10.066;2023-04-25T03:27:44;4.82;;;2.20;;
31368;SDS011;18004;48.416;10.066;2023-04-25T03:30:09;3.00;;;1.67;;
31368;SDS011;18004;48.416;10.066;2023-04-25T03:32:36;4.72;;;1.77;;
31368;SDS011;18004;48.416;10.066;2023-04-25T03:35:02;2.05;;;1.40;;
31368;SDS011;18004;48.416;10.066;2023-04-25T03:37:28;3.30;;;1.98;;
31368;SDS011;18004;48.416;10.066;2023-04-25T03:39:54;1.45;;;1.33;;
31368;SDS011;18004;48.416;10.066;2023-04-25T03:42:19;3.33;;;1.70;;
31368;SDS011;18004;48.416;10.066;2023-04-25T03:44:48;4.18;;;2.08;;
31368;SDS011;18004;48.416;10.066;2023-04-25T03:47:14;3.67;;;2.90;;
31368;SDS011;18004;48.416;10.066;2023-04-25T03:49:41;4.82;;;3.72;;
31368;SDS011;18004;48.416;10.066;2023-04-25T03:52:07;4.32;;;3.72;;
31368;SDS011;18004;48.416;10.066;2023-04-25T03:54:33;6.30;;;2.85;;
31368;SDS011;18004;48.416;10.066;2023-04-25T03:56:58;3.00;;;2.55;;
31368;SDS011;18004;48.416;10.066;2023-04-25T03:59:24;6.32;;;3.30;;
31368;SDS011;18004;48.416;10.066;2023-04-25T04:01:51;2.45;;;1.90;;
31368;SDS011;18004;48.416;10.066;2023-04-25T04:04:17;3.10;;;1.75;;
31368;SDS011;18004;48.416;10.066;2023-04-25T04:06:43;3.28;;;2.20;;
31368;SDS011;18004;48.416;10.066;2023-04-25T04:09:09;6.10;;;2.63;;
31368;SDS011;18004;48.416;10.066;2023-04-25T04:11:36;5.75;;;2.90;;
31368;SDS011;18004;48.416;10.066;2023-04-25T04:14:04;4.47;;;2.10;;
31368;SDS011;18004;48.416;10.066;2023-04-25T04:16:31;5.68;;;1.92;;
31368;SDS011;18004;48.416;10.066;2023-04-25T04:18:57;4.43;;;2.55;;
31368;SDS011;18004;48.416;10.066;2023-04-25T04:21:22;5.90;;;2.67;;
31368;SDS011;18004;48.416;10.066;2023-04-25T04:23:48;7.63;;;2.88;;
31368;SDS011;18004;48.416;10.066;2023-04-25T04:26:14;5.28;;;2.80;;
31368;SDS011;18004;48.416;10.066;2023-04-25T04:28:43;6.78;;;2.30;;
31368;SDS011;18004;48.416;10.066;2023-04-25T04:31:09;2.95;;;1.83;;
31368;SDS011;18004;48.416;10.066;2023-04-25T04:33:36;7.05;;;2.08;;
31368;SDS011;18004;48.416;10.066;2023-04-25T04:36:02;2.92;;;1.67;;
31368;SDS011;18004;48.416;10.066;2023-04-25T04:38:29;3.63;;;2.28;;
31368;SDS011;18004;48.416;10.066;2023-04-25T04:40:55;4.03;;;3.15;;
31368;SDS011;18004;48.416;10.066;2023-04-25T04:43:21;8.15;;;4.03;;
31368;SDS011;18004;48.416;10.066;2023-04-25T04:45:48;6.38;;;3.92;;
31368;SDS011;18004;48.416;10.066;2023-04-25T04:48:15;5.90;;;2.63;;
31368;SDS011;18004;48.416;10.066;2023-04-25T04:50:44;3.15;;;2.30;;
31368;SDS011;18004;48.416;10.066;2023-04-25T04:53:10;3.72;;;2.45;;
31368;SDS011;18004;48.416;10.066;2023-04-25T04:55:37;8.10;;;3.50;;
31368;SDS011;18004;48.416;10.066;2023-04-25T04:58:02;12.65;;;7.47;;
31368;SDS011;18004;48.416;10.066;2023-04-25T05:00:28;11.40;;;8.43;;
31368;SDS011;18004;48.416;10.066;2023-04-25T05:02:55;10.68;;;7.65;;
31368;SDS011;18004;48.416;10.066;2023-04-25T05:05:21;10.23;;;4.93;;
31368;SDS011;18004;48.416;10.066;2023-04-25T05:07:47;6.57;;;2.60;;
31368;SDS011;18004;48.416;10.066;2023-04-25T05:10:12;5.15;;;2.90;;
31368;SDS011;18004;48.416;10.066;2023-04-25T05:12:38;2.05;;;1.38;;
31368;SDS011;18004;48.416;10.066;2023-04-25T05:15:04;4.03;;;1.55;;
31368;SDS011;18004;48.416;10.066;2023-04-25T05:17:30;2.58;;;1.38;;
31368;SDS011;18004;48.416;10.066;2023-04-25T05:19:57;4.88;;;1.40;;
31368;SDS011;18004;48.416;10.066;2023-04-25T05:22:23;5.68;;;1.33;;
31368;SDS011;18004;48.416;10.066;2023-04-25T05:24:49;3.72;;;1.67;;
31368;SDS011;18004;48.416;10.066;2023-04-25T05:27:17;7.47;;;1.65;;
31368;SDS011;18004;48.416;10.066;2023-04-25T05:29:43;2.97;;;1.42;;
31368;SDS011;18004;48.416;10.066;2023-04-25T05:32:09;3.63;;;1.77;;
31368;SDS011;18004;48.416;10.066;2023-04-25T05:34:35;1.48;;;1.13;;
31368;SDS011;18004;48.416;10.066;2023-04-25T05:37:01;3.88;;;1.67;;
31368;SDS011;18004;48.416;10.066;2023-04-25T05:39:27;1.65;;;1.38;;
31368;SDS011;18004;48.416;10.066;2023-04-25T05:41:53;1.40;;;1.30;;
31368;SDS011;18004;48.416;10.066;2023-04-25T05:44:19;2.70;;;1.42;;
31368;SDS011;18004;48.416;10.066;2023-04-25T05:46:45;6.38;;;2.10;;
31368;SDS011;18004;48.416;10.066;2023-04-25T05:49:10;2.80;;;1.70;;
31368;SDS011;18004;48.416;10.066;2023-04-25T05:51:36;2.78;;;1.50;;
31368;SDS011;18004;48.416;10.066;2023-04-25T05:54:02;4.57;;;1.40;;
31368;SDS011;18004;48.416;10.066;2023-04-25T05:56:28;2.47;;;1.48;;
31368;SDS011;18004;48.416;10.066;2023-04-25T05:58:53;4.78;;;2.15;;
31368;SDS011;18004;48.416;10.066;2023-04-25T06:01:20;3.42;;;1.83;;
31368;SDS011;18004;48.416;10.066;2023-04-25T06:03:47;8.82;;;2.45;;
31368;SDS011;18004;48.416;10.066;2023-04-25T06:06:12;4.97;;;2.92;;
31368;SDS011;18004;48.416;10.066;2023-04-25T06:08:38;3.75;;;2.42;;
31368;SDS011;18004;48.416;10.066;2023-04-25T06:11:04;4.90;;;3.53;;
31368;SDS011;18004;48.416;10.066;2023-04-25T06:13:31;1.67;;;1.42;;
31368;SDS011;18004;48.416;10.066;2023-04-25T06:15:57;3.33;;;2.17;;
31368;SDS011;18004;48.416;10.066;2023-04-25T06:18:22;6.78;;;4.07;;
31368;SDS011;18004;48.416;10.066;2023-04-25T06:20:48;5.28;;;2.63;;
31368;SDS011;18004;48.416;10.066;2023-04-25T06:23:14;4.97;;;2.17;;
31368;SDS011;18004;48.416;10.066;2023-04-25T06:25:40;7.68;;;2.45;;
31368;SDS011;18004;48.416;10.066;2023-04-25T06:28:05;5.72;;;3.55;;
31368;SDS011;18004;48.416;10.066;2023-04-25T06:30:31;6.50;;;3.53;;
31368;SDS011;18004;48.416;10.066;2023-04-25T06:32:57;6.75;;;4.18;;
31368;SDS011;18004;48.416;10.066;2023-04-25T06:35:22;6.97;;;3.15;;
31368;SDS011;18004;48.416;10.066;2023-04-25T06:37:48;5.70;;;3.70;;
31368;SDS011;18004;48.416;10.066;2023-04-25T06:40:14;5.32;;;3.30;;
31368;SDS011;18004;48.416;10.066;2023-04-25T06:42:40;4.10;;;2.95;;
31368;SDS011;18004;48.416;10.066;2023-04-25T06:45:06;14.38;;;3.10;;
31368;SDS011;18004;48.416;10.066;2023-04-25T06:47:32;10.73;;;3.70;;
31368;SDS011;18004;48.416;10.066;2023-04-25T06:49:58;4.18;;;2.88;;
31368;SDS011;18004;48.416;10.066;2023-04-25T06:52:23;2.63;;;1.80;;
31368;SDS011;18004;48.416;10.066;2023-04-25T06:54:49;3.47;;;2.15;;
31368;SDS011;18004;48.416;10.066;2023-04-25T06:57:15;3.85;;;2.30;;
31368;SDS011;18004;48.416;10.066;2023-04-25T06:59:40;5.28;;;2.90;;
31368;SDS011;18004;48.416;10.066;2023-04-25T07:02:06;5.10;;;2.75;;
31368;SDS011;18004;48.416;10.066;2023-04-25T07:04:32;3.55;;;2.20;;
31368;SDS011;18004;48.416;10.066;2023-04-25T07:06:58;6.43;;;2.00;;
31368;SDS011;18004;48.416;10.066;2023-04-25T07:09:26;4.68;;;2.00;;
31368;SDS011;18004;48.416;10.066;2023-04-25T07:11:51;4.82;;;1.80;;
31368;SDS011;18004;48.416;10.066;2023-04-25T07:14:17;9.98;;;2.10;;
31368;SDS011;18004;48.416;10.066;2023-04-25T07:16:43;2.35;;;1.45;;
31368;SDS011;18004;48.416;10.066;2023-04-25T07:19:08;2.22;;;1.25;;
31368;SDS011;18004;48.416;10.066;2023-04-25T07:21:34;4.55;;;2.03;;
31368;SDS011;18004;48.416;10.066;2023-04-25T07:24:01;2.20;;;1.50;;
31368;SDS011;18004;48.416;10.066;2023-04-25T07:26:27;4.22;;;2.10;;
31368;SDS011;18004;48.416;10.066;2023-04-25T07:28:53;2.72;;;1.77;;
31368;SDS011;18004;48.416;10.066;2023-04-25T07:31:19;2.30;;;1.55;;
31368;SDS011;18004;48.416;10.066;2023-04-25T07:33:46;3.13;;;2.00;;
31368;SDS011;18004;48.416;10.066;2023-04-25T07:36:12;4.13;;;2.60;;
31368;SDS011;18004;48.416;10.066;2023-04-25T07:38:38;8.82;;;1.88;;
31368;SDS011;18004;48.416;10.066;2023-04-25T07:41:04;2.95;;;2.15;;
31368;SDS011;18004;48.416;10.066;2023-04-25T07:43:30;2.55;;;1.73;;
31368;SDS011;18004;48.416;10.066;2023-04-25T07:45:56;4.53;;;1.30;;
31368;SDS011;18004;48.416;10.066;2023-04-25T07:48:22;2.40;;;1.58;;
31368;SDS011;18004;48.416;10.066;2023-04-25T07:50:48;4.50;;;1.20;;
31368;SDS011;18004;48.416;10.066;2023-04-25T07:53:14;7.28;;;1.40;;
31368;SDS011;18004;48.416;10.066;2023-04-25T07:55:39;4.80;;;1.42;;
31368;SDS011;18004;48.416;10.066;2023-04-25T07:58:06;3.63;;;1.42;;
31368;SDS011;18004;48.416;10.066;2023-04-25T08:00:32;2.83;;;1.45;;
31368;SDS011;18004;48.416;10.066;2023-04-25T08:02:58;1.20;;;1.00;;
31368;SDS011;18004;48.416;10.066;2023-04-25T08:05:23;1.65;;;1.00;;
31368;SDS011;18004;48.416;10.066;2023-04-25T08:07:49;2.60;;;1.85;;
31368;SDS011;18004;48.416;10.066;2023-04-25T08:10:15;5.85;;;1.35;;
31368;SDS011;18004;48.416;10.066;2023-04-25T08:12:41;2.92;;;1.50;;
31368;SDS011;18004;48.416;10.066;2023-04-25T08:15:07;4.35;;;1.83;;
31368;SDS011;18004;48.416;10.066;2023-04-25T08:17:33;9.15;;;4.13;;
31368;SDS011;18004;48.416;10.066;2023-04-25T08:19:59;5.85;;;2.70;;
31368;SDS011;18004;48.416;10.066;2023-04-25T08:22:25;2.33;;;1.35;;
31368;SDS011;18004;48.416;10.066;2023-04-25T08:24:51;4.00;;;1.38;;
31368;SDS011;18004;48.416;10.066;2023-04-25T08:27:17;3.30;;;1.52;;
31368;SDS011;18004;48.416;10.066;2023-04-25T08:29:44;1.15;;;1.08;;
31368;SDS011;18004;48.416;10.066;2023-04-25T08:32:09;2.88;;;1.30;;
31368;SDS011;18004;48.416;10.066;2023-04-25T08:34:35;2.35;;;1.10;;
31368;SDS011;18004;48.416;10.066;2023-04-25T08:37:03;1.45;;;0.95;;
31368;SDS011;18004;48.416;10.066;2023-04-25T08:39:29;3.50;;;1.10;;
31368;SDS011;18004;48.416;10.066;2023-04-25T08:41:55;2.17;;;1.00;;
31368;SDS011;18004;48.416;10.066;2023-04-25T08:44:22;3.47;;;1.10;;
31368;SDS011;18004;48.416;10.066;2023-04-25T08:46:48;2.72;;;0.82;;
31368;SDS011;18004;48.416;10.066;2023-04-25T08:49:15;1.25;;;0.90;;
31368;SDS011;18004;48.416;10.066;2023-04-25T08:51:46;6.90;;;1.00;;
31368;SDS011;18004;48.416;10.066;2023-04-25T08:54:13;7.30;;;1.33;;
31368;SDS011;18004;48.416;10.066;2023-04-25T08:56:46;2.95;;;0.65;;
31368;SDS011;18004;48.416;10.066;2023-04-25T08:59:13;3.60;;;0.75;;
31368;SDS011;18004;48.416;10.066;2023-04-25T09:01:39;2.35;;;0.85;;
31368;SDS011;18004;48.416;10.066;2023-04-25T09:04:05;1.90;;;0.60;;
31368;SDS011;18004;48.416;10.066;2023-04-25T09:06:31;2.83;;;1.15;;
31368;SDS011;18004;48.416;10.066;2023-04-25T09:09:01;2.70;;;1.38;;
31368;SDS011;18004;48.416;10.066;2023-04-25T09:11:29;0.73;;;0.65;;
31368;SDS011;18004;48.416;10.066;2023-04-25T09:14:14;3.40;;;1.05;;
31368;SDS011;18004;48.416;10.066;2023-04-25T09:19:26;0.95;;;0.80;;
31368;SDS011;18004;48.416;10.066;2023-04-25T09:22:03;1.27;;;0.88;;
31368;SDS011;18004;48.416;10.066;2023-04-25T09:24:37;2.30;;;0.80;;
31368;SDS011;18004;48.416;10.066;2023-04-25T09:27:03;2.95;;;1.13;;
31368;SDS011;18004;48.416;10.066;2023-04-25T09:29:33;1.33;;;0.80;;
31368;SDS011;18004;48.416;10.066;2023-04-25T09:34:40;2.65;;;0.90;;
31368;SDS011;18004;48.416;10.066;2023-04-25T09:37:08;1.42;;;1.00;;
31368;SDS011;18004;48.416;10.066;2023-04-25T09:39:36;1.20;;;0.80;;
31368;SDS011;18004;48.416;10.066;2023-04-25T09:42:03;1.08;;;0.80;;
31368;SDS011;18004;48.416;10.066;2023-04-25T09:44:29;1.60;;;1.00;;
31368;SDS011;18004;48.416;10.066;2023-04-25T09:46:55;6.93;;;1.15;;
31368;SDS011;18004;48.416;10.066;2023-04-25T09:49:21;2.42;;;1.40;;
31368;SDS011;18004;48.416;10.066;2023-04-25T09:51:58;2.28;;;1.27;;
31368;SDS011;18004;48.416;10.066;2023-04-25T09:54:25;11.75;;;1.55;;
31368;SDS011;18004;48.416;10.066;2023-04-25T09:56:52;15.07;;;1.08;;
31368;SDS011;18004;48.416;10.066;2023-04-25T09:59:21;1.20;;;0.90;;
31368;SDS011;18004;48.416;10.066;2023-04-25T10:01:50;1.00;;;0.90;;
31368;SDS011;18004;48.416;10.066;2023-04-25T10:04:21;2.80;;;1.10;;
31368;SDS011;18004;48.416;10.066;2023-04-25T10:06:51;0.90;;;0.85;;
31368;SDS011;18004;48.416;10.066;2023-04-25T10:09:20;0.63;;;0.55;;
31368;SDS011;18004;48.416;10.066;2023-04-25T10:11:48;0.80;;;0.70;;
31368;SDS011;18004;48.416;10.066;2023-04-25T10:14:16;1.75;;;0.70;;
31368;SDS011;18004;48.416;10.066;2023-04-25T10:16:42;1.08;;;0.93;;
31368;SDS011;18004;48.416;10.066;2023-04-25T10:19:09;3.75;;;1.00;;
31368;SDS011;18004;48.416;10.066;2023-04-25T10:21:35;0.88;;;0.60;;
31368;SDS011;18004;48.416;10.066;2023-04-25T10:24:09;1.60;;;0.82;;
31368;SDS011;18004;48.416;10.066;2023-04-25T10:26:35;1.38;;;1.00;;
31368;SDS011;18004;48.416;10.066;2023-04-25T10:29:02;1.80;;;1.15;;
31368;SDS011;18004;48.416;10.066;2023-04-25T10:31:29;1.92;;;1.20;;
31368;SDS011;18004;48.416;10.066;2023-04-25T10:33:56;2.55;;;1.38;;
31368;SDS011;18004;48.416;10.066;2023-04-25T10:36:22;2.42;;;1.35;;
31368;SDS011;18004;48.416;10.066;2023-04-25T10:38:50;1.55;;;1.45;;
31368;SDS011;18004;48.416;10.066;2023-04-25T10:41:20;2.47;;;1.60;;
31368;SDS011;18004;48.416;10.066;2023-04-25T10:43:48;1.75;;;1.60;;
31368;SDS011;18004;48.416;10.066;2023-04-25T10:48:51;2.83;;;1.50;;
31368;SDS011;18004;48.416;10.066;2023-04-25T10:54:06;1.75;;;1.20;;
31368;SDS011;18004;48.416;10.066;2023-04-25T10:56:33;1.33;;;0.80;;
31368;SDS011;18004;48.416;10.066;2023-04-25T10:59:14;3.75;;;0.88;;
31368;SDS011;18004;48.416;10.066;2023-04-25T11:01:42;3.90;;;2.08;;
31368;SDS011;18004;48.416;10.066;2023-04-25T11:04:25;3.08;;;2.17;;
31368;SDS011;18004;48.416;10.066;2023-04-25T11:09:39;1.73;;;1.10;;
31368;SDS011;18004;48.416;10.066;2023-04-25T11:12:07;2.00;;;1.30;;
31368;SDS011;18004;48.416;10.066;2023-04-25T11:14:34;4.68;;;1.20;;
31368;SDS011;18004;48.416;10.066;2023-04-25T11:17:00;2.85;;;1.50;;
31368;SDS011;18004;48.416;10.066;2023-04-25T11:19:27;1.08;;;0.85;;
31368;SDS011;18004;48.416;10.066;2023-04-25T11:21:57;1.00;;;0.73;;
31368;SDS011;18004;48.416;10.066;2023-04-25T11:24:28;0.90;;;0.82;;
31368;SDS011;18004;48.416;10.066;2023-04-25T11:26:58;1.08;;;0.75;;
31368;SDS011;18004;48.416;10.066;2023-04-25T11:29:28;1.17;;;0.82;;
31368;SDS011;18004;48.416;10.066;2023-04-25T11:31:55;1.33;;;0.95;;
31368;SDS011;18004;48.416;10.066;2023-04-25T11:34:25;1.25;;;1.08;;
31368;SDS011;18004;48.416;10.066;2023-04-25T11:36:51;2.30;;;1.42;;
31368;SDS011;18004;48.416;10.066;2023-04-25T11:39:21;1.48;;;0.80;;
31368;SDS011;18004;48.416;10.066;2023-04-25T11:41:48;1.63;;;0.57;;
31368;SDS011;18004;48.416;10.066;2023-04-25T11:44:15;1.38;;;0.60;;
31368;SDS011;18004;48.416;10.066;2023-04-25T11:46:44;1.40;;;0.95;;
31368;SDS011;18004;48.416;10.066;2023-04-25T11:49:11;1.48;;;0.85;;
31368;SDS011;18004;48.416;10.066;2023-04-25T11:51:38;0.60;;;0.40;;
31368;SDS011;18004;48.416;10.066;2023-04-25T11:54:08;0.40;;;0.40;;
31368;SDS011;18004;48.416;10.066;2023-04-25T11:56:34;0.80;;;0.80;;
31368;SDS011;18004;48.416;10.066;2023-04-25T11:59:01;0.85;;;0.60;;
31368;SDS011;18004;48.416;10.066;2023-04-25T12:06:42;0.60;;;0.60;;
31368;SDS011;18004;48.416;10.066;2023-04-25T12:09:09;0.57;;;0.50;;
31368;SDS011;18004;48.416;10.066;2023-04-25T12:11:44;0.68;;;0.52;;
31368;SDS011;18004;48.416;10.066;2023-04-25T12:14:11;1.02;;;0.63;;
31368;SDS011;18004;48.416;10.066;2023-04-25T12:16:46;1.48;;;0.90;;
31368;SDS011;18004;48.416;10.066;2023-04-25T12:19:15;0.85;;;0.60;;
31368;SDS011;18004;48.416;10.066;2023-04-25T12:21:42;1.10;;;0.70;;
31368;SDS011;18004;48.416;10.066;2023-04-25T12:24:18;0.85;;;0.68;;
31368;SDS011;18004;48.416;10.066;2023-04-25T12:26:57;0.80;;;0.73;;
31368;SDS011;18004;48.416;10.066;2023-04-25T12:29:25;3.97;;;0.70;;
31368;SDS011;18004;48.416;10.066;2023-04-25T12:31:53;1.73;;;0.68;;
31368;SDS011;18004;48.416;10.066;2023-04-25T12:34:20;0.80;;;0.80;;
31368;SDS011;18004;48.416;10.066;2023-04-25T12:36:46;0.68;;;0.63;;
31368;SDS011;18004;48.416;10.066;2023-04-25T12:39:16;0.82;;;0.63;;
31368;SDS011;18004;48.416;10.066;2023-04-25T12:41:44;0.50;;;0.50;;
31368;SDS011;18004;48.416;10.066;2023-04-25T12:44:12;0.73;;;0.63;;
31368;SDS011;18004;48.416;10.066;2023-04-25T12:46:38;1.45;;;0.70;;
31368;SDS011;18004;48.416;10.066;2023-04-25T12:49:05;0.80;;;0.60;;
31368;SDS011;18004;48.416;10.066;2023-04-25T12:51:33;1.40;;;0.68;;
31368;SDS011;18004;48.416;10.066;2023-04-25T12:54:00;0.60;;;0.60;;
31368;SDS011;18004;48.416;10.066;2023-04-25T12:56:30;2.17;;;0.68;;
31368;SDS011;18004;48.416;10.066;2023-04-25T12:58:56;0.55;;;0.30;;
31368;SDS011;18004;48.416;10.066;2023-04-25T13:01:23;0.40;;;0.40;;
31368;SDS011;18004;48.416;10.066;2023-04-25T13:03:49;0.90;;;0.30;;
31368;SDS011;18004;48.416;10.066;2023-04-25T13:06:16;0.30;;;0.25;;
31368;SDS011;18004;48.416;10.066;2023-04-25T13:08:42;0.50;;;0.30;;
31368;SDS011;18004;48.416;10.066;2023-04-25T13:11:08;0.20;;;0.20;;
31368;SDS011;18004;48.416;10.066;2023-04-25T13:13:34;0.20;;;0.20;;
31368;SDS011;18004;48.416;10.066;2023-04-25T13:16:04;0.65;;;0.40;;
31368;SDS011;18004;48.416;10.066;2023-04-25T13:18:30;0.88;;;0.55;;
31368;SDS011;18004;48.416;10.066;2023-04-25T13:20:56;0.30;;;0.30;;
31368;SDS011;18004;48.416;10.066;2023-04-25T13:23:26;0.20;;;0.20;;
31368;SDS011;18004;48.416;10.066;2023-04-25T13:25:54;0.30;;;0.30;;
31368;SDS011;18004;48.416;10.066;2023-04-25T13:28:20;0.98;;;0.50;;
31368;SDS011;18004;48.416;10.066;2023-04-25T13:30:46;1.70;;;1.10;;
31368;SDS011;18004;48.416;10.066;2023-04-25T13:33:13;1.38;;;0.70;;
31368;SDS011;18004;48.416;10.066;2023-04-25T13:35:40;2.88;;;1.13;;
31368;SDS011;18004;48.416;10.066;2023-04-25T13:38:06;0.68;;;0.50;;
31368;SDS011;18004;48.416;10.066;2023-04-25T13:40:32;0.45;;;0.38;;
31368;SDS011;18004;48.416;10.066;2023-04-25T13:42:58;0.98;;;0.60;;
31368;SDS011;18004;48.416;10.066;2023-04-25T13:45:24;0.75;;;0.70;;
31368;SDS011;18004;48.416;10.066;2023-04-25T13:47:50;1.48;;;0.65;;
31368;SDS011;18004;48.416;10.066;2023-04-25T13:50:16;2.78;;;0.57;;
31368;SDS011;18004;48.416;10.066;2023-04-25T13:52:42;1.48;;;0.65;;
31368;SDS011;18004;48.416;10.066;2023-04-25T13:55:08;1.45;;;0.70;;
31368;SDS011;18004;48.416;10.066;2023-04-25T13:57:35;0.93;;;0.80;;
31368;SDS011;18004;48.416;10.066;2023-04-25T14:00:01;0.88;;;0.70;;
31368;SDS011;18004;48.416;10.066;2023-04-25T14:02:34;0.80;;;0.77;;
31368;SDS011;18004;48.416;10.066;2023-04-25T14:05:00;1.05;;;0.70;;
31368;SDS011;18004;48.416;10.066;2023-04-25T14:07:27;3.03;;;0.82;;
31368;SDS011;18004;48.416;10.066;2023-04-25T14:09:52;0.75;;;0.60;;
31368;SDS011;18004;48.416;10.066;2023-04-25T14:12:18;0.73;;;0.63;;
31368;SDS011;18004;48.416;10.066;2023-04-25T14:14:44;1.65;;;0.88;;
31368;SDS011;18004;48.416;10.066;2023-04-25T14:17:10;2.88;;;0.70;;
31368;SDS011;18004;48.416;10.066;2023-04-25T14:19:36;0.77;;;0.60;;
31368;SDS011;18004;48.416;10.066;2023-04-25T14:22:03;0.65;;;0.63;;
31368;SDS011;18004;48.416;10.066;2023-04-25T14:24:29;1.80;;;0.70;;
31368;SDS011;18004;48.416;10.066;2023-04-25T14:26:55;1.10;;;1.00;;
31368;SDS011;18004;48.416;10.066;2023-04-25T14:29:21;1.35;;;0.95;;
31368;SDS011;18004;48.416;10.066;2023-04-25T14:31:47;1.38;;;0.88;;
31368;SDS011;18004;48.416;10.066;2023-04-25T14:34:13;4.88;;;1.45;;
31368;SDS011;18004;48.416;10.066;2023-04-25T14:36:38;2.40;;;1.02;;
31368;SDS011;18004;48.416;10.066;2023-04-25T14:39:04;0.93;;;0.63;;
31368;SDS011;18004;48.416;10.066;2023-04-25T14:41:30;2.53;;;0.70;;
31368;SDS011;18004;48.416;10.066;2023-04-25T14:43:56;2.22;;;1.00;;
31368;SDS011;18004;48.416;10.066;2023-04-25T14:46:22;1.90;;;0.90;;
31368;SDS011;18004;48.416;10.066;2023-04-25T14:48:48;2.45;;;0.93;;